createdAt,value
2019-04-29T00:01:15.475Z,5.80
2019-04-29T00:07:20.153Z,5.80
2019-04-29T00:13:25.736Z,5.80
2019-04-29T00:19:30.287Z,5.70
2019-04-29T00:25:35.119Z,5.60
2019-04-29T00:31:39.690Z,5.50
2019-04-29T00:38:02.142Z,5.40
2019-04-29T00:44:08.695Z,5.40
2019-04-29T00:50:13.384Z,5.40
2019-04-29T00:56:17.939Z,5.40
2019-04-29T01:02:22.556Z,5.50
2019-04-29T01:08:27.538Z,5.40
2019-04-29T01:14:32.086Z,5.30
2019-04-29T01:20:36.631Z,5.20
2019-04-29T01:26:56.230Z,5.20
2019-04-29T01:33:00.898Z,5.00
2019-04-29T01:39:09.311Z,5.00
2019-04-29T01:45:14.077Z,4.90
2019-04-29T01:51:18.646Z,4.90
2019-04-29T01:57:23.198Z,4.90
2019-04-29T02:03:27.794Z,5.00
2019-04-29T02:09:36.394Z,5.00
2019-04-29T02:15:40.940Z,5.00
2019-04-29T02:21:47.118Z,5.10
2019-04-29T02:27:51.667Z,5.00
2019-04-29T02:33:56.211Z,5.10
2019-04-29T02:40:02.398Z,5.00
2019-04-29T02:46:07.066Z,5.00
2019-04-29T02:52:11.807Z,5.00
2019-04-29T02:58:20.747Z,4.90
2019-04-29T03:04:29.901Z,4.80
2019-04-29T03:10:34.443Z,4.70
2019-04-29T03:16:39.812Z,4.50
2019-04-29T03:22:46.369Z,4.40
2019-04-29T03:28:50.910Z,4.30
2019-04-29T03:34:55.465Z,4.20
2019-04-29T03:40:59.999Z,4.10
2019-04-29T03:47:04.793Z,4.10
2019-04-29T03:53:09.398Z,4.10
2019-04-29T03:59:13.948Z,4.10
2019-04-29T04:05:20.701Z,4.10
2019-04-29T04:11:25.241Z,4.20
2019-04-29T04:17:31.449Z,4.20
2019-04-29T04:23:36.023Z,4.20
2019-04-29T04:29:40.554Z,4.30
2019-04-29T04:35:45.105Z,4.40
2019-04-29T04:41:49.665Z,4.60
2019-04-29T04:47:54.373Z,4.80
2019-04-29T04:53:58.910Z,5.00
2019-04-29T05:00:06.537Z,5.10
2019-04-29T05:06:11.176Z,5.10
2019-04-29T05:12:15.715Z,5.20
2019-04-29T05:18:20.334Z,5.40
2019-04-29T05:24:24.953Z,5.50
2019-04-29T05:30:29.893Z,5.70
2019-04-29T05:36:38.178Z,5.70
2019-04-29T05:42:43.471Z,5.80
2019-04-29T05:48:48.192Z,6.00
2019-04-29T05:54:52.848Z,6.30
2019-04-29T06:01:04.765Z,6.60
2019-04-29T06:07:09.309Z,6.70
2019-04-29T06:13:13.866Z,6.90
2019-04-29T06:19:18.425Z,7.20
2019-04-29T06:25:22.959Z,7.60
2019-04-29T06:31:27.501Z,7.80
2019-04-29T06:37:32.057Z,8.00
2019-04-29T06:43:36.594Z,8.30
2019-04-29T06:49:41.218Z,8.70
2019-04-29T06:55:45.772Z,9.30
2019-04-29T07:01:50.323Z,10.20
2019-04-29T07:07:54.911Z,10.70
2019-04-29T07:13:59.487Z,10.50
2019-04-29T07:20:05.386Z,10.30
2019-04-29T07:26:09.951Z,10.40
2019-04-29T07:32:14.509Z,10.70
2019-04-29T07:38:19.117Z,10.70
2019-04-29T07:44:27.443Z,11.00
2019-04-29T07:50:31.857Z,11.40
2019-04-29T07:56:37.811Z,11.50
2019-04-29T08:02:42.765Z,11.70
2019-04-29T08:08:54.671Z,11.60
2019-04-29T08:14:58.626Z,11.60
2019-04-29T08:21:01.404Z,11.60
2019-04-29T08:27:06.095Z,11.40
2019-04-29T08:33:12.089Z,11.30
2019-04-29T08:39:16.957Z,11.40
2019-04-29T08:45:22.226Z,11.20
2019-04-29T08:51:26.863Z,11.40
2019-04-29T08:57:31.798Z,11.60
2019-04-29T09:03:40.350Z,11.40
2019-04-29T09:09:43.986Z,11.50
2019-04-29T09:15:48.546Z,11.30
2019-04-29T09:21:57.374Z,11.10
2019-04-29T09:28:03.657Z,10.90
2019-04-29T09:34:08.233Z,10.70
2019-04-29T09:40:26.769Z,10.60
2019-04-29T09:46:34.591Z,10.50
2019-04-29T09:52:39.320Z,10.40
2019-04-29T09:58:43.963Z,10.40
2019-04-29T10:05:08.664Z,10.50
2019-04-29T10:11:13.795Z,10.50
2019-04-29T10:17:18.149Z,10.20
2019-04-29T10:23:22.941Z,10.10
2019-04-29T10:29:29.147Z,9.80
2019-04-29T10:35:33.868Z,9.70
2019-04-29T10:41:41.609Z,9.70
2019-04-29T10:47:54.211Z,9.50
2019-04-29T10:53:58.897Z,9.70
2019-04-29T11:00:23.483Z,9.80
2019-04-29T11:06:31.439Z,9.90
2019-04-29T11:12:34.926Z,10.00
2019-04-29T11:18:39.966Z,10.20
2019-04-29T11:24:50.517Z,10.20
2019-04-29T11:30:55.411Z,10.30
2019-04-29T11:37:00.531Z,10.30
2019-04-29T11:43:10.808Z,10.20
2019-04-29T11:49:15.582Z,10.30
2019-04-29T11:55:20.298Z,10.00
2019-04-29T12:01:37.979Z,9.90
2019-04-29T12:07:34.081Z,9.80
2019-04-29T12:13:40.474Z,9.80
2019-04-29T12:19:49.445Z,9.80
2019-04-29T12:25:54.013Z,9.90
2019-04-29T12:32:00.284Z,10.00
2019-04-29T12:38:22.725Z,9.90
2019-04-29T12:44:39.653Z,9.90
2019-04-29T12:50:41.589Z,9.90
2019-04-29T12:56:47.638Z,9.90
2019-04-29T13:03:01.786Z,9.90
2019-04-29T13:09:17.965Z,10.00
2019-04-29T13:15:22.378Z,10.00
2019-04-29T13:21:27.134Z,10.10
2019-04-29T13:27:31.769Z,10.10
2019-04-29T13:33:36.350Z,10.00
2019-04-29T13:39:40.972Z,10.00
2019-04-29T13:45:52.939Z,10.10
2019-04-29T13:51:59.128Z,10.00
2019-04-29T13:58:04.022Z,10.00
2019-04-29T14:04:24.380Z,10.00
2019-04-29T14:10:22.900Z,10.00
2019-04-29T14:16:27.521Z,10.00
2019-04-29T14:22:32.329Z,10.00
2019-04-29T14:28:37.046Z,10.00
2019-04-29T14:34:43.336Z,10.00
2019-04-29T14:40:47.892Z,10.00
2019-04-29T14:47:00.000Z,9.80
2019-04-29T14:53:04.621Z,9.80
2019-04-29T14:59:09.173Z,9.80
2019-04-29T15:05:14.078Z,9.80
2019-04-29T15:11:31.341Z,9.80
2019-04-29T15:17:27.062Z,9.70
2019-04-29T15:23:32.966Z,9.50
2019-04-29T15:29:37.670Z,9.50
2019-04-29T15:35:42.363Z,9.50
2019-04-29T15:41:47.087Z,9.50
2019-04-29T15:47:51.731Z,9.60
2019-04-29T15:53:56.274Z,9.50
2019-04-29T16:00:02.051Z,9.50
2019-04-29T16:06:20.789Z,9.50
2019-04-29T16:12:25.938Z,9.50
2019-04-29T16:18:30.487Z,9.50
2019-04-29T16:24:38.227Z,9.50
2019-04-29T16:30:41.490Z,9.50
2019-04-29T16:36:49.822Z,9.50
2019-04-29T16:43:03.179Z,9.60
2019-04-29T16:49:07.962Z,9.70
2019-04-29T16:55:12.682Z,9.80
2019-04-29T17:01:17.308Z,9.80
2019-04-29T17:07:21.950Z,9.80
2019-04-29T17:13:26.585Z,9.90
2019-04-29T17:19:31.302Z,9.90
2019-04-29T17:25:35.886Z,9.90
2019-04-29T17:31:40.954Z,10.00
2019-04-29T17:37:46.277Z,10.00
2019-04-29T17:43:53.330Z,10.00
2019-04-29T17:50:01.982Z,10.10
2019-04-29T17:56:25.341Z,10.10
2019-04-29T18:02:48.157Z,10.20
2019-04-29T18:08:54.993Z,10.20
2019-04-29T18:14:59.576Z,10.20
2019-04-29T18:21:12.912Z,10.20
2019-04-29T18:27:19.125Z,10.30
2019-04-29T18:33:29.874Z,10.30
2019-04-29T18:39:31.616Z,10.30
2019-04-29T18:45:37.861Z,10.40
2019-04-29T18:51:42.417Z,10.40
2019-04-29T18:57:47.049Z,10.40
2019-04-29T19:03:56.189Z,10.40
2019-04-29T19:10:00.810Z,10.30
2019-04-29T19:16:10.366Z,10.30
2019-04-29T19:22:11.684Z,10.30
2019-04-29T19:28:25.212Z,10.20
2019-04-29T19:34:22.643Z,10.20
2019-04-29T19:40:30.653Z,10.00
2019-04-29T19:46:38.269Z,9.90
2019-04-29T19:52:39.770Z,9.80
2019-04-29T19:58:44.686Z,9.70
2019-04-29T20:04:59.570Z,9.60
2019-04-29T20:11:13.753Z,9.60
2019-04-29T20:17:30.541Z,9.50
2019-04-29T20:23:38.462Z,9.60
2019-04-29T20:29:40.285Z,9.70
2019-04-29T20:35:49.077Z,9.80
2019-04-29T20:41:51.386Z,9.90
2019-04-29T20:47:56.424Z,10.00
2019-04-29T20:54:09.259Z,10.00
2019-04-29T21:00:19.953Z,10.00
2019-04-29T21:06:22.236Z,9.90
2019-04-29T21:12:41.419Z,9.90
2019-04-29T21:18:52.963Z,9.90
2019-04-29T21:24:53.952Z,9.80
2019-04-29T21:30:58.852Z,9.80
2019-04-29T21:37:10.058Z,9.90
2019-04-29T21:43:21.654Z,9.80
2019-04-29T21:49:26.273Z,9.80
2019-04-29T21:55:30.827Z,9.70
2019-04-29T22:01:37.446Z,9.70
2019-04-29T22:07:45.971Z,9.70
2019-04-29T22:13:48.009Z,9.70
2019-04-29T22:19:52.557Z,9.60
2019-04-29T22:25:57.182Z,9.60
2019-04-29T22:32:01.796Z,9.60
2019-04-29T22:38:07.874Z,9.70
2019-04-29T22:44:21.285Z,9.70
2019-04-29T22:50:20.949Z,9.70
2019-04-29T22:56:27.631Z,9.70
2019-04-29T23:02:31.839Z,9.70
2019-04-29T23:08:38.099Z,9.50
2019-04-29T23:14:44.407Z,9.30
2019-04-29T23:21:08.652Z,9.20
2019-04-29T23:27:16.337Z,9.00
2019-04-29T23:33:22.995Z,8.90
2019-04-29T23:39:26.031Z,8.80
2019-04-29T23:45:30.570Z,8.80
2019-04-29T23:51:37.753Z,8.70
2019-04-29T23:58:02.925Z,8.50
